createdAt,value
2022-11-20T00:00:54.245Z,22.76
2022-11-20T00:01:54.878Z,22.79
2022-11-20T00:02:55.494Z,22.77
2022-11-20T00:03:56.132Z,22.70
2022-11-20T00:04:56.706Z,22.58
2022-11-20T00:05:57.316Z,22.37
2022-11-20T00:06:57.916Z,22.20
2022-11-20T00:07:58.550Z,22.22
2022-11-20T00:08:59.131Z,22.51
2022-11-20T00:09:59.708Z,22.77
2022-11-20T00:11:00.347Z,23.01
2022-11-20T00:12:00.936Z,23.28
2022-11-20T00:13:01.525Z,23.51
2022-11-20T00:14:02.105Z,23.68
2022-11-20T00:15:02.681Z,23.78
2022-11-20T00:16:03.389Z,23.91
2022-11-20T00:17:03.966Z,23.91
2022-11-20T00:18:04.536Z,23.80
2022-11-20T00:19:05.150Z,23.57
2022-11-20T00:20:05.724Z,23.57
2022-11-20T00:21:06.334Z,23.63
2022-11-20T00:22:06.921Z,23.72
2022-11-20T00:23:07.489Z,23.70
2022-11-20T00:24:08.062Z,23.70
2022-11-20T00:25:08.642Z,23.66
2022-11-20T00:26:09.250Z,23.58
2022-11-20T00:27:09.820Z,23.50
2022-11-20T00:28:10.397Z,23.36
2022-11-20T00:29:10.981Z,23.25
2022-11-20T00:30:14.888Z,23.16
2022-11-20T00:31:12.365Z,23.10
2022-11-20T00:32:12.949Z,23.00
2022-11-20T00:33:13.526Z,22.91
2022-11-20T00:34:14.129Z,22.85
2022-11-20T00:35:14.714Z,22.85
2022-11-20T00:36:15.334Z,22.88
2022-11-20T00:37:15.917Z,22.90
2022-11-20T00:38:16.497Z,22.97
2022-11-20T00:39:17.061Z,23.10
2022-11-20T00:40:17.630Z,23.19
2022-11-20T00:41:18.264Z,23.33
2022-11-20T00:42:18.966Z,23.40
2022-11-20T00:43:19.552Z,23.39
2022-11-20T00:44:20.161Z,23.38
2022-11-20T00:45:20.757Z,23.35
2022-11-20T00:46:21.408Z,23.42
2022-11-20T00:47:21.991Z,23.48
2022-11-20T00:48:22.586Z,23.60
2022-11-20T00:49:23.662Z,23.68
2022-11-20T00:50:23.927Z,23.76
2022-11-20T00:51:24.543Z,23.75
2022-11-20T00:52:25.122Z,23.72
2022-11-20T00:53:26.029Z,23.66
2022-11-20T00:54:26.617Z,23.68
2022-11-20T00:55:27.204Z,23.70
2022-11-20T00:56:27.873Z,23.73
2022-11-20T00:57:28.450Z,23.76
2022-11-20T00:58:29.027Z,23.73
2022-11-20T00:59:29.612Z,23.79
2022-11-20T01:00:30.202Z,23.88
2022-11-20T01:01:30.935Z,23.90
2022-11-20T01:02:31.540Z,23.88
2022-11-20T01:03:32.125Z,23.90
2022-11-20T01:04:32.778Z,23.90
2022-11-20T01:05:33.366Z,23.88
2022-11-20T01:06:33.977Z,23.87
2022-11-20T01:07:34.635Z,23.88
2022-11-20T01:08:35.253Z,23.84
2022-11-20T01:09:35.844Z,23.78
2022-11-20T01:10:36.410Z,23.73
2022-11-20T01:11:37.057Z,23.65
2022-11-20T01:12:37.680Z,23.57
2022-11-20T01:13:38.266Z,23.48
2022-11-20T01:14:38.849Z,23.47
2022-11-20T01:15:39.446Z,23.60
2022-11-20T01:16:40.146Z,23.66
2022-11-20T01:17:40.719Z,23.75
2022-11-20T01:18:41.283Z,23.78
2022-11-20T01:19:41.853Z,23.75
2022-11-20T01:20:42.427Z,23.73
2022-11-20T01:21:43.029Z,23.70
2022-11-20T01:22:43.606Z,23.66
2022-11-20T01:23:44.197Z,23.63
2022-11-20T01:24:44.776Z,23.61
2022-11-20T01:25:45.358Z,23.61
2022-11-20T01:26:45.969Z,23.61
2022-11-20T01:27:46.539Z,23.65
2022-11-20T01:28:47.103Z,23.66
2022-11-20T01:29:47.667Z,23.72
2022-11-20T01:30:48.284Z,23.75
2022-11-20T01:31:49.188Z,23.78
2022-11-20T01:32:49.775Z,23.79
2022-11-20T01:33:50.351Z,23.80
2022-11-20T01:34:50.961Z,23.83
2022-11-20T01:35:51.544Z,23.79
2022-11-20T01:36:52.226Z,23.79
2022-11-20T01:37:52.804Z,23.80
2022-11-20T01:38:53.394Z,23.84
2022-11-20T01:39:53.969Z,23.79
2022-11-20T01:40:54.538Z,23.78
2022-11-20T01:41:55.161Z,23.76
2022-11-20T01:42:55.742Z,23.73
2022-11-20T01:43:56.327Z,23.75
2022-11-20T01:44:56.896Z,23.75
2022-11-20T01:45:57.473Z,23.84
2022-11-20T01:46:58.125Z,23.85
2022-11-20T01:47:58.702Z,23.88
2022-11-20T01:48:59.288Z,23.87
2022-11-20T01:49:59.862Z,23.88
2022-11-20T01:51:00.431Z,23.84
2022-11-20T01:52:01.033Z,23.78
2022-11-20T01:53:01.613Z,23.70
2022-11-20T01:54:02.200Z,23.68
2022-11-20T01:55:02.780Z,23.57
2022-11-20T01:56:03.347Z,23.51
2022-11-20T01:57:03.995Z,23.47
2022-11-20T01:58:04.568Z,23.42
2022-11-20T01:59:05.210Z,23.38
2022-11-20T02:00:05.788Z,23.33
2022-11-20T02:01:06.416Z,23.32
2022-11-20T02:02:07.067Z,23.23
2022-11-20T02:03:07.639Z,23.17
2022-11-20T02:04:08.215Z,23.13
2022-11-20T02:05:08.793Z,23.02
2022-11-20T02:06:09.394Z,23.02
2022-11-20T02:07:10.166Z,23.01
2022-11-20T02:08:10.841Z,23.01
2022-11-20T02:09:11.416Z,22.97
2022-11-20T02:10:11.993Z,22.97
2022-11-20T02:11:12.573Z,22.95
2022-11-20T02:12:13.209Z,22.95
2022-11-20T02:13:13.776Z,22.95
2022-11-20T02:14:14.355Z,22.97
2022-11-20T02:15:14.925Z,22.98
2022-11-20T02:16:15.497Z,23.01
2022-11-20T02:17:16.198Z,23.04
2022-11-20T02:18:16.781Z,23.07
2022-11-20T02:19:17.373Z,23.07
2022-11-20T02:20:17.977Z,23.10
2022-11-20T02:21:18.559Z,23.13
2022-11-20T02:22:19.172Z,23.15
2022-11-20T02:23:19.756Z,23.22
2022-11-20T02:24:20.341Z,23.28
2022-11-20T02:25:20.922Z,23.27
2022-11-20T02:26:21.509Z,23.27
2022-11-20T02:27:22.123Z,23.25
2022-11-20T02:28:22.704Z,23.19
2022-11-20T02:29:23.483Z,23.12
2022-11-20T02:30:24.080Z,23.04
2022-11-20T02:31:24.649Z,22.98
2022-11-20T02:32:25.341Z,22.92
2022-11-20T02:33:25.932Z,22.85
2022-11-20T02:34:26.502Z,22.82
2022-11-20T02:35:27.072Z,22.82
2022-11-20T02:36:27.651Z,22.79
2022-11-20T02:37:28.261Z,22.79
2022-11-20T02:38:28.828Z,22.77
2022-11-20T02:39:29.400Z,22.79
2022-11-20T02:40:29.978Z,22.80
2022-11-20T02:41:30.561Z,22.85
2022-11-20T02:42:31.193Z,22.88
2022-11-20T02:43:31.763Z,22.91
2022-11-20T02:44:32.342Z,22.91
2022-11-20T02:45:32.916Z,22.91
2022-11-20T02:46:33.495Z,22.91
2022-11-20T02:47:34.154Z,22.97
2022-11-20T02:48:34.745Z,23.01
2022-11-20T02:49:35.309Z,23.07
2022-11-20T02:50:35.874Z,23.09
2022-11-20T02:51:36.471Z,23.10
2022-11-20T02:52:37.107Z,23.13
2022-11-20T02:53:37.723Z,23.15
2022-11-20T02:54:38.312Z,23.20
2022-11-20T02:55:38.889Z,23.19
2022-11-20T02:56:39.485Z,23.13
2022-11-20T02:57:40.147Z,23.10
2022-11-20T02:58:40.716Z,23.04
2022-11-20T02:59:41.301Z,23.02
2022-11-20T03:00:41.863Z,23.05
2022-11-20T03:01:42.527Z,23.17
2022-11-20T03:02:43.238Z,23.23
2022-11-20T03:03:43.824Z,23.22
2022-11-20T03:04:44.412Z,23.19
2022-11-20T03:05:44.991Z,23.13
2022-11-20T03:06:45.716Z,23.09
2022-11-20T03:07:46.724Z,23.04
2022-11-20T03:08:46.805Z,23.00
2022-11-20T03:09:47.376Z,22.92
2022-11-20T03:10:47.957Z,22.90
2022-11-20T03:11:48.524Z,22.90
2022-11-20T03:12:49.182Z,22.92
2022-11-20T03:13:49.749Z,22.95
2022-11-20T03:14:53.289Z,22.92
2022-11-20T03:15:51.035Z,22.91
2022-11-20T03:16:51.658Z,22.91
2022-11-20T03:17:52.391Z,22.85
2022-11-20T03:18:52.967Z,22.75
2022-11-20T03:19:53.532Z,22.67
2022-11-20T03:20:54.104Z,22.61
2022-11-20T03:21:54.686Z,22.65
2022-11-20T03:22:55.318Z,22.70
2022-11-20T03:23:55.904Z,22.75
2022-11-20T03:24:56.482Z,22.80
2022-11-20T03:25:57.050Z,22.85
2022-11-20T03:26:57.625Z,22.95
2022-11-20T03:27:58.232Z,23.05
2022-11-20T03:28:58.806Z,23.28
2022-11-20T03:29:59.393Z,23.47
2022-11-20T03:31:00.013Z,23.61
2022-11-20T03:32:00.627Z,23.68
2022-11-20T03:33:01.314Z,23.78
2022-11-20T03:34:01.878Z,23.88
2022-11-20T03:35:02.460Z,23.94
2022-11-20T03:36:03.038Z,23.97
2022-11-20T03:37:03.610Z,23.97
2022-11-20T03:38:04.302Z,24.05
2022-11-20T03:39:04.876Z,24.09
2022-11-20T03:40:05.447Z,24.16
2022-11-20T03:41:06.045Z,24.22
2022-11-20T03:42:06.620Z,24.16
2022-11-20T03:43:07.249Z,24.16
2022-11-20T03:44:07.831Z,24.16
2022-11-20T03:45:08.404Z,24.15
2022-11-20T03:46:08.988Z,24.16
2022-11-20T03:47:09.574Z,24.12
2022-11-20T03:48:10.241Z,24.10
2022-11-20T03:49:10.817Z,24.05
2022-11-20T03:50:11.387Z,24.00
2022-11-20T03:51:11.963Z,23.97
2022-11-20T03:52:12.538Z,23.94
2022-11-20T03:53:13.157Z,23.93
2022-11-20T03:54:13.722Z,23.97
2022-11-20T03:55:14.304Z,23.97
2022-11-20T03:56:14.883Z,24.02
2022-11-20T03:57:15.463Z,24.05
2022-11-20T03:58:16.123Z,24.00
2022-11-20T03:59:16.687Z,23.94
2022-11-20T04:00:17.268Z,23.90
2022-11-20T04:01:17.927Z,23.88
2022-11-20T04:02:18.652Z,23.83
2022-11-20T04:03:19.335Z,23.78
2022-11-20T04:04:19.906Z,23.75
2022-11-20T04:05:20.472Z,23.75
2022-11-20T04:06:21.044Z,23.79
2022-11-20T04:07:21.678Z,23.79
2022-11-20T04:08:22.621Z,23.79
2022-11-20T04:09:23.505Z,23.88
2022-11-20T04:10:23.873Z,23.98
2022-11-20T04:11:24.441Z,23.97
2022-11-20T04:12:25.008Z,23.94
2022-11-20T04:13:25.638Z,23.93
2022-11-20T04:14:26.228Z,23.91
2022-11-20T04:15:26.799Z,23.88
2022-11-20T04:16:27.371Z,23.88
2022-11-20T04:17:27.958Z,23.83
2022-11-20T04:18:28.647Z,23.84
2022-11-20T04:19:29.212Z,23.83
2022-11-20T04:20:29.788Z,23.80
2022-11-20T04:21:30.374Z,23.84
2022-11-20T04:22:30.946Z,23.85
2022-11-20T04:23:50.234Z,23.93
2022-11-20T04:24:32.176Z,23.98
2022-11-20T04:25:32.756Z,24.02
2022-11-20T04:26:33.321Z,24.09
2022-11-20T04:27:33.893Z,24.15
2022-11-20T04:28:34.505Z,24.13
2022-11-20T04:29:35.081Z,24.13
2022-11-20T04:30:35.650Z,24.16
2022-11-20T04:31:36.227Z,24.20
2022-11-20T04:32:36.814Z,24.21
2022-11-20T04:33:37.427Z,24.21
2022-11-20T04:34:38.004Z,24.22
2022-11-20T04:35:38.573Z,24.31
2022-11-20T04:36:39.150Z,24.31
2022-11-20T04:37:39.694Z,24.35
2022-11-20T04:38:40.370Z,24.34
2022-11-20T04:39:40.948Z,24.30
2022-11-20T04:40:41.518Z,24.30
2022-11-20T04:41:42.086Z,24.30
2022-11-20T04:42:42.658Z,24.30
2022-11-20T04:43:43.340Z,24.28
2022-11-20T04:44:43.864Z,24.25
2022-11-20T04:45:44.392Z,24.31
2022-11-20T04:46:44.905Z,24.32
2022-11-20T04:47:45.417Z,24.31
2022-11-20T04:48:46.029Z,24.34
2022-11-20T04:49:46.657Z,24.30
2022-11-20T04:50:47.218Z,24.27
2022-11-20T04:51:47.752Z,24.27
2022-11-20T04:52:48.278Z,24.27
2022-11-20T04:53:48.838Z,24.30
2022-11-20T04:54:49.345Z,24.32
2022-11-20T04:55:49.882Z,24.30
2022-11-20T04:56:50.798Z,24.31
2022-11-20T04:57:51.363Z,24.28
2022-11-20T04:58:51.953Z,24.28
2022-11-20T04:59:52.464Z,24.30
2022-11-20T05:00:53.347Z,24.27
2022-11-20T05:01:53.940Z,24.28
2022-11-20T05:02:54.488Z,24.28
2022-11-20T05:03:55.206Z,24.27
2022-11-20T05:04:55.719Z,24.27
2022-11-20T05:05:56.235Z,24.25
2022-11-20T05:06:56.936Z,24.24
2022-11-20T05:07:57.565Z,24.20
2022-11-20T05:08:58.138Z,24.21
2022-11-20T05:09:58.650Z,24.22
2022-11-20T05:10:59.163Z,24.27
2022-11-20T05:11:59.680Z,24.30
2022-11-20T05:13:00.228Z,24.32
2022-11-20T05:14:00.854Z,24.32
2022-11-20T05:15:01.529Z,24.37
2022-11-20T05:16:02.270Z,24.39
2022-11-20T05:17:03.001Z,24.40
2022-11-20T05:18:03.522Z,24.40
2022-11-20T05:19:04.161Z,24.45
2022-11-20T05:20:04.675Z,24.53
2022-11-20T05:21:05.195Z,24.55
2022-11-20T05:22:05.717Z,24.52
2022-11-20T05:23:06.294Z,24.52
2022-11-20T05:24:06.848Z,24.52
2022-11-20T05:25:07.380Z,24.49
2022-11-20T05:26:07.897Z,24.46
2022-11-20T05:27:08.422Z,24.46
2022-11-20T05:28:08.947Z,24.46
2022-11-20T05:29:09.574Z,24.46
2022-11-20T05:30:10.104Z,24.45
2022-11-20T05:31:10.617Z,24.46
2022-11-20T05:32:11.146Z,24.47
2022-11-20T05:33:11.670Z,24.46
2022-11-20T05:34:12.294Z,24.45
2022-11-20T05:35:12.831Z,24.46
2022-11-20T05:36:13.352Z,24.45
2022-11-20T05:37:13.864Z,24.43
2022-11-20T05:38:14.382Z,24.39
2022-11-20T05:39:14.934Z,24.37
2022-11-20T05:40:15.450Z,24.34
2022-11-20T05:41:15.967Z,24.35
2022-11-20T05:42:16.504Z,24.31
2022-11-20T05:43:17.130Z,24.32
2022-11-20T05:44:17.756Z,24.34
2022-11-20T05:45:18.284Z,24.31
2022-11-20T05:46:21.269Z,24.31
2022-11-20T05:47:19.661Z,24.37
2022-11-20T05:48:20.175Z,24.42
2022-11-20T05:49:21.102Z,24.45
2022-11-20T05:50:21.328Z,24.45
2022-11-20T05:51:21.863Z,24.46
2022-11-20T05:52:22.386Z,24.46
2022-11-20T05:53:22.901Z,24.50
2022-11-20T05:54:23.467Z,24.49
2022-11-20T05:55:23.992Z,24.47
2022-11-20T05:56:24.522Z,24.47
2022-11-20T05:57:25.041Z,24.49
2022-11-20T05:58:25.562Z,24.47
2022-11-20T05:59:26.271Z,24.46
2022-11-20T06:00:26.795Z,24.45
2022-11-20T06:01:27.350Z,24.43
2022-11-20T06:02:27.891Z,24.42
2022-11-20T06:03:28.449Z,24.40
2022-11-20T06:04:29.096Z,24.42
2022-11-20T06:05:29.611Z,24.39
2022-11-20T06:06:30.125Z,24.42
2022-11-20T06:07:30.697Z,24.46
2022-11-20T06:08:31.264Z,24.49
2022-11-20T06:09:31.812Z,24.53
2022-11-20T06:10:32.542Z,24.64
2022-11-20T06:11:33.063Z,24.68
2022-11-20T06:12:33.585Z,24.73
2022-11-20T06:13:37.932Z,24.76
2022-11-20T06:14:34.994Z,24.77
2022-11-20T06:15:35.522Z,24.76
2022-11-20T06:16:36.045Z,24.77
2022-11-20T06:17:36.563Z,24.78
2022-11-20T06:18:37.077Z,24.78
2022-11-20T06:19:37.738Z,24.80
2022-11-20T06:20:42.105Z,24.81
2022-11-20T06:21:38.862Z,24.84
2022-11-20T06:22:39.373Z,24.88
2022-11-20T06:23:39.896Z,24.85
2022-11-20T06:24:40.477Z,24.91
2022-11-20T06:25:40.997Z,24.99
2022-11-20T06:26:41.517Z,25.02
2022-11-20T06:27:42.030Z,25.00
2022-11-20T06:28:42.546Z,25.03
2022-11-20T06:29:43.100Z,25.03
2022-11-20T06:30:43.640Z,25.03
2022-11-20T06:31:44.168Z,25.08
2022-11-20T06:32:44.678Z,25.14
2022-11-20T06:33:45.232Z,25.10
2022-11-20T06:34:45.776Z,25.13
2022-11-20T06:35:46.312Z,25.10
2022-11-20T06:36:46.840Z,25.09
2022-11-20T06:37:47.361Z,25.05
2022-11-20T06:38:47.880Z,25.05
2022-11-20T06:39:48.589Z,25.03
2022-11-20T06:40:49.112Z,25.06
2022-11-20T06:41:52.238Z,25.09
2022-11-20T06:42:50.429Z,25.09
2022-11-20T06:43:50.960Z,25.15
2022-11-20T06:44:51.538Z,25.14
2022-11-20T06:45:52.047Z,25.15
2022-11-20T06:46:52.566Z,25.17
2022-11-20T06:47:53.091Z,25.23
2022-11-20T06:48:53.612Z,25.27
2022-11-20T06:49:54.220Z,25.30
2022-11-20T06:50:54.742Z,25.30
2022-11-20T06:51:55.263Z,25.28
2022-11-20T06:52:55.782Z,25.27
2022-11-20T06:53:56.291Z,25.30
2022-11-20T06:54:56.827Z,25.28
2022-11-20T06:55:57.342Z,25.32
2022-11-20T06:56:57.858Z,25.24
2022-11-20T06:57:58.368Z,25.21
2022-11-20T06:58:58.892Z,25.18
2022-11-20T06:59:59.927Z,25.20
2022-11-20T07:01:00.025Z,25.15
2022-11-20T07:02:00.633Z,25.09
2022-11-20T07:03:01.148Z,25.05
2022-11-20T07:04:01.661Z,25.00
2022-11-20T07:05:02.205Z,24.98
2022-11-20T07:06:02.726Z,24.95
2022-11-20T07:07:03.371Z,24.95
2022-11-20T07:08:03.910Z,24.95
2022-11-20T07:09:08.563Z,24.96
2022-11-20T07:10:05.316Z,24.98
2022-11-20T07:11:05.871Z,24.96
2022-11-20T07:12:06.406Z,24.99
2022-11-20T07:13:06.930Z,24.99
2022-11-20T07:14:07.477Z,24.99
2022-11-20T07:15:08.071Z,24.96
2022-11-20T07:16:08.588Z,24.98
2022-11-20T07:17:09.113Z,24.95
2022-11-20T07:18:09.638Z,24.98
2022-11-20T07:19:10.154Z,24.99
2022-11-20T07:20:10.870Z,24.99
2022-11-20T07:21:11.397Z,25.00
2022-11-20T07:22:11.916Z,25.00
2022-11-20T07:23:12.437Z,25.00
2022-11-20T07:24:12.968Z,25.02
2022-11-20T07:25:13.535Z,25.06
2022-11-20T07:26:14.053Z,25.10
2022-11-20T07:27:14.567Z,25.10
2022-11-20T07:28:15.091Z,25.13
2022-11-20T07:29:15.656Z,25.14
2022-11-20T07:30:16.219Z,25.08
2022-11-20T07:31:19.470Z,25.10
2022-11-20T07:32:17.329Z,25.08
2022-11-20T07:33:17.845Z,25.10
2022-11-20T07:34:18.357Z,25.15
2022-11-20T07:35:19.006Z,25.17
2022-11-20T07:36:19.534Z,25.15
2022-11-20T07:37:20.052Z,25.20
2022-11-20T07:38:20.578Z,25.18
2022-11-20T07:39:21.512Z,25.15
2022-11-20T07:40:21.783Z,25.17
2022-11-20T07:41:22.333Z,25.18
2022-11-20T07:42:22.851Z,25.17
2022-11-20T07:43:23.374Z,25.13
2022-11-20T07:44:23.906Z,25.20
2022-11-20T07:45:24.532Z,25.27
2022-11-20T07:46:25.055Z,25.32
2022-11-20T07:47:25.570Z,25.39
2022-11-20T07:48:26.134Z,25.39
2022-11-20T07:49:26.651Z,25.43
2022-11-20T07:50:27.358Z,25.45
2022-11-20T07:51:27.908Z,25.46
2022-11-20T07:52:28.433Z,25.50
2022-11-20T07:53:28.957Z,25.52
2022-11-20T07:54:29.487Z,25.51
2022-11-20T07:55:30.038Z,25.55
2022-11-20T07:56:30.562Z,25.52
2022-11-20T07:57:31.083Z,25.58
2022-11-20T07:58:31.602Z,25.58
2022-11-20T07:59:32.144Z,25.61
2022-11-20T08:00:33.214Z,25.64
2022-11-20T08:01:33.256Z,25.65
2022-11-20T08:02:33.771Z,25.70
2022-11-20T08:03:34.290Z,25.75
2022-11-20T08:04:34.813Z,25.80
2022-11-20T08:05:35.396Z,25.88
2022-11-20T08:06:35.915Z,25.87
2022-11-20T08:07:36.485Z,25.87
2022-11-20T08:08:42.464Z,25.83
2022-11-20T08:09:37.884Z,25.80
2022-11-20T08:10:38.432Z,25.85
2022-11-20T08:11:38.963Z,25.88
2022-11-20T08:12:39.480Z,25.91
2022-11-20T08:13:40.034Z,25.90
2022-11-20T08:14:40.559Z,25.90
2022-11-20T08:15:41.195Z,25.95
2022-11-20T08:16:41.713Z,25.91
2022-11-20T08:17:42.237Z,25.87
2022-11-20T08:18:42.756Z,25.88
2022-11-20T08:19:43.286Z,25.83
2022-11-20T08:20:43.934Z,25.85
2022-11-20T08:21:44.446Z,25.82
2022-11-20T08:22:45.004Z,25.82
2022-11-20T08:23:45.521Z,25.82
2022-11-20T08:24:46.042Z,25.82
2022-11-20T08:25:46.591Z,25.85
2022-11-20T08:26:47.136Z,25.80
2022-11-20T08:27:47.669Z,25.83
2022-11-20T08:28:48.193Z,25.82
2022-11-20T08:29:48.706Z,25.85
2022-11-20T08:30:49.357Z,25.85
2022-11-20T08:31:49.880Z,25.83
2022-11-20T08:32:50.402Z,25.85
2022-11-20T08:33:50.937Z,25.85
2022-11-20T08:34:51.467Z,25.87
2022-11-20T08:35:52.073Z,25.87
2022-11-20T08:36:52.597Z,25.85
2022-11-20T08:37:53.119Z,25.87
2022-11-20T08:38:53.632Z,25.94
2022-11-20T08:39:54.139Z,25.88
2022-11-20T08:40:54.699Z,25.92
2022-11-20T08:41:55.222Z,25.94
2022-11-20T08:42:55.749Z,25.94
2022-11-20T08:43:56.282Z,25.95
2022-11-20T08:44:56.802Z,25.99
2022-11-20T08:45:57.385Z,26.02
2022-11-20T08:46:57.905Z,26.02
2022-11-20T08:47:58.438Z,26.05
2022-11-20T08:48:58.965Z,26.06
2022-11-20T08:49:59.486Z,26.10
2022-11-20T08:51:00.094Z,26.09
2022-11-20T08:52:00.619Z,26.07
2022-11-20T08:53:01.150Z,26.10
2022-11-20T08:54:01.681Z,26.06
2022-11-20T08:55:02.189Z,26.09
2022-11-20T08:56:02.752Z,26.07
2022-11-20T08:57:04.210Z,26.09
2022-11-20T08:58:04.064Z,26.12
2022-11-20T09:00:06.917Z,26.20
2022-11-20T09:01:06.944Z,26.21
2022-11-20T09:02:07.022Z,26.20
2022-11-20T09:03:07.550Z,26.23
2022-11-20T09:04:08.091Z,26.21
2022-11-20T09:05:08.614Z,26.23
2022-11-20T09:06:09.173Z,26.23
2022-11-20T09:07:09.838Z,26.28
2022-11-20T09:08:10.472Z,26.25
2022-11-20T09:09:10.979Z,26.28
2022-11-20T09:10:23.729Z,26.28
2022-11-20T09:11:12.401Z,26.30
2022-11-20T09:12:12.939Z,26.28
2022-11-20T09:13:13.446Z,26.32
2022-11-20T09:14:13.981Z,26.28
2022-11-20T09:15:14.505Z,26.30
2022-11-20T09:16:15.090Z,26.26
2022-11-20T09:17:15.616Z,26.28
2022-11-20T09:18:16.146Z,26.29
2022-11-20T09:20:17.535Z,26.30
2022-11-20T09:21:18.301Z,26.25
2022-11-20T09:22:18.853Z,26.28
2022-11-20T09:23:19.364Z,26.29
2022-11-20T09:24:19.872Z,26.28
2022-11-20T09:25:20.407Z,26.25
2022-11-20T09:26:20.967Z,26.25
2022-11-20T09:27:21.488Z,26.28
2022-11-20T09:28:22.018Z,26.32
2022-11-20T09:29:23.145Z,26.33
2022-11-20T09:30:23.475Z,26.32
2022-11-20T09:31:24.372Z,26.26
2022-11-20T09:32:24.901Z,26.29
2022-11-20T09:33:25.420Z,26.33
2022-11-20T09:34:25.950Z,26.36
2022-11-20T09:35:26.568Z,26.35
2022-11-20T09:36:27.189Z,26.33
2022-11-20T09:37:27.729Z,26.32
2022-11-20T09:38:28.306Z,26.39
2022-11-20T09:39:29.131Z,26.40
2022-11-20T09:40:29.687Z,26.44
2022-11-20T09:41:30.237Z,26.45
2022-11-20T09:42:30.759Z,26.47
2022-11-20T09:43:34.859Z,26.48
2022-11-20T09:44:32.216Z,26.55
2022-11-20T09:45:32.745Z,26.57
2022-11-20T09:46:33.335Z,26.54
2022-11-20T09:47:33.866Z,26.52
2022-11-20T09:48:34.392Z,26.52
2022-11-20T09:49:35.283Z,26.52
2022-11-20T09:50:35.498Z,26.47
2022-11-20T09:51:36.135Z,26.48
2022-11-20T09:52:36.663Z,26.44
2022-11-20T09:53:37.192Z,26.44
2022-11-20T09:54:37.716Z,26.45
2022-11-20T09:55:38.236Z,26.50
2022-11-20T09:56:38.779Z,26.52
2022-11-20T09:57:39.287Z,26.45
2022-11-20T09:58:39.863Z,26.48
2022-11-20T09:59:40.392Z,26.50
2022-11-20T10:00:40.960Z,26.51
2022-11-20T10:01:41.559Z,26.55
2022-11-20T10:02:42.075Z,26.67
2022-11-20T10:03:42.598Z,26.72
2022-11-20T10:04:43.144Z,26.70
2022-11-20T10:05:43.670Z,26.60
2022-11-20T10:06:44.295Z,26.54
2022-11-20T10:07:44.876Z,26.51
2022-11-20T10:08:45.407Z,26.47
2022-11-20T10:09:45.941Z,26.48
2022-11-20T10:10:50.755Z,26.48
2022-11-20T10:11:47.449Z,26.58
2022-11-20T10:12:47.977Z,26.62
2022-11-20T10:13:48.489Z,26.67
2022-11-20T10:14:49.024Z,26.65
2022-11-20T10:15:49.543Z,26.70
2022-11-20T10:16:50.103Z,26.75
2022-11-20T10:17:50.636Z,26.82
2022-11-20T10:18:51.164Z,26.80
2022-11-20T10:19:51.687Z,26.82
2022-11-20T10:20:52.202Z,26.88
2022-11-20T10:21:52.828Z,26.84
2022-11-20T10:22:53.352Z,26.87
2022-11-20T10:23:53.885Z,26.92
2022-11-20T10:24:54.414Z,26.92
2022-11-20T10:25:54.942Z,26.89
2022-11-20T10:26:55.485Z,26.88
2022-11-20T10:27:56.005Z,26.88
2022-11-20T10:28:59.813Z,27.02
2022-11-20T10:29:57.380Z,27.03
2022-11-20T10:30:57.911Z,27.12
2022-11-20T10:31:58.504Z,27.21
2022-11-20T10:32:59.040Z,27.24
2022-11-20T10:34:19.382Z,27.24
2022-11-20T10:35:00.439Z,27.28
2022-11-20T10:36:00.961Z,27.24
2022-11-20T10:37:01.623Z,27.28
2022-11-20T10:38:02.134Z,27.17
2022-11-20T10:39:02.667Z,27.03
2022-11-20T10:40:03.193Z,27.10
2022-11-20T10:41:03.713Z,27.29
2022-11-20T10:42:04.280Z,27.41
2022-11-20T10:43:04.821Z,27.65
2022-11-20T10:44:05.348Z,27.59
2022-11-20T10:45:06.806Z,27.84
2022-11-20T10:46:06.606Z,28.39
2022-11-20T10:47:07.193Z,28.59
2022-11-20T10:48:07.714Z,28.25
2022-11-20T10:49:08.241Z,28.11
2022-11-20T10:50:08.756Z,28.37
2022-11-20T10:51:09.288Z,28.56
2022-11-20T10:52:09.862Z,28.73
2022-11-20T10:53:10.392Z,29.11
2022-11-20T10:54:10.962Z,29.87
2022-11-20T10:55:11.491Z,30.42
2022-11-20T10:56:12.020Z,30.54
2022-11-20T10:57:12.561Z,30.99
2022-11-20T10:58:13.078Z,31.12
2022-11-20T10:59:13.591Z,31.28
2022-11-20T11:00:14.106Z,31.75
2022-11-20T11:01:14.742Z,32.00
2022-11-20T11:02:15.386Z,32.32
2022-11-20T11:03:15.919Z,32.48
2022-11-20T11:04:16.441Z,32.03
2022-11-20T11:05:16.962Z,32.26
2022-11-20T11:06:17.486Z,32.75
2022-11-20T11:07:18.320Z,32.60
2022-11-20T11:08:18.883Z,32.26
2022-11-20T11:09:20.018Z,32.19
2022-11-20T11:10:20.311Z,31.76
2022-11-20T11:11:20.835Z,31.70
2022-11-20T11:12:21.660Z,31.32
2022-11-20T11:13:22.194Z,31.01
2022-11-20T11:14:22.702Z,30.61
2022-11-20T11:15:23.220Z,30.67
2022-11-20T11:16:23.746Z,30.94
2022-11-20T11:17:24.331Z,31.06
2022-11-20T11:18:24.855Z,31.39
2022-11-20T11:19:25.843Z,31.99
2022-11-20T11:20:26.060Z,32.18
2022-11-20T11:21:26.588Z,32.33
2022-11-20T11:22:27.237Z,32.45
2022-11-20T11:23:27.773Z,32.48
2022-11-20T11:24:42.218Z,33.00
2022-11-20T11:25:29.177Z,33.61
2022-11-20T11:26:29.745Z,33.90
2022-11-20T11:27:30.284Z,34.00
2022-11-20T11:28:30.803Z,34.39
2022-11-20T11:29:31.326Z,34.13
2022-11-20T11:30:31.854Z,34.02
2022-11-20T11:31:32.385Z,34.64
2022-11-20T11:32:32.937Z,35.02
2022-11-20T11:33:33.453Z,34.89
2022-11-20T11:34:33.974Z,34.82
2022-11-20T11:35:35.261Z,34.17
2022-11-20T11:36:35.317Z,33.81
2022-11-20T11:37:36.012Z,33.45
2022-11-20T11:38:36.526Z,33.69
2022-11-20T11:39:37.050Z,34.28
2022-11-20T11:40:37.558Z,34.00
2022-11-20T11:41:38.296Z,33.87
2022-11-20T11:42:40.120Z,34.03
2022-11-20T11:43:39.644Z,34.12
2022-11-20T11:44:40.170Z,34.39
2022-11-20T11:45:40.706Z,34.43
2022-11-20T11:46:41.237Z,33.72
2022-11-20T11:47:41.834Z,33.37
2022-11-20T11:48:45.791Z,33.51
2022-11-20T11:49:43.210Z,33.00
2022-11-20T11:50:43.752Z,32.56
2022-11-20T11:51:43.393Z,32.37
2022-11-20T11:52:45.006Z,31.93
2022-11-20T11:53:45.525Z,31.85
2022-11-20T11:54:46.065Z,31.72
2022-11-20T11:55:46.590Z,31.88
2022-11-20T11:56:47.106Z,32.06
2022-11-20T11:57:47.674Z,32.45
2022-11-20T11:58:48.209Z,32.48
2022-11-20T11:59:48.747Z,32.48
2022-11-20T12:00:49.267Z,32.14
2022-11-20T12:01:50.284Z,31.66
2022-11-20T12:02:50.462Z,31.54
2022-11-20T12:03:50.987Z,31.56
2022-11-20T12:04:51.512Z,31.38
2022-11-20T12:05:52.036Z,31.16
2022-11-20T12:06:52.552Z,31.07
2022-11-20T12:07:53.184Z,30.79
2022-11-20T12:08:53.740Z,30.79
2022-11-20T12:09:54.267Z,30.60
2022-11-20T12:10:54.795Z,30.58
2022-11-20T12:11:55.314Z,31.09
2022-11-20T12:12:56.019Z,31.39
2022-11-20T12:13:56.544Z,30.98
2022-11-20T12:14:57.066Z,30.79
2022-11-20T12:15:57.596Z,30.42
2022-11-20T12:16:58.126Z,30.04
2022-11-20T12:17:58.715Z,29.73
2022-11-20T12:18:59.234Z,29.58
2022-11-20T12:19:59.745Z,29.92
2022-11-20T12:21:00.269Z,29.89
2022-11-20T12:22:04.136Z,29.92
2022-11-20T12:23:01.653Z,29.61
2022-11-20T12:24:02.178Z,29.57
2022-11-20T12:25:02.705Z,29.52
2022-11-20T12:26:03.237Z,29.67
2022-11-20T12:27:03.755Z,29.76
2022-11-20T12:28:04.320Z,30.57
2022-11-20T12:29:04.849Z,31.13
2022-11-20T12:30:05.404Z,31.38
2022-11-20T12:31:05.981Z,31.13
2022-11-20T12:32:06.511Z,30.69
2022-11-20T12:33:07.084Z,29.98
2022-11-20T12:34:07.607Z,29.58
2022-11-20T12:35:11.420Z,29.15
2022-11-20T12:36:08.748Z,28.80
2022-11-20T12:37:09.283Z,28.96
2022-11-20T12:38:09.974Z,28.77
2022-11-20T12:39:10.498Z,28.54
2022-11-20T12:40:11.017Z,28.27
2022-11-20T12:41:11.552Z,28.14
2022-11-20T12:42:12.100Z,27.93
2022-11-20T12:43:12.698Z,27.70
2022-11-20T12:44:13.229Z,27.63
2022-11-20T12:45:13.757Z,27.59
2022-11-20T12:46:14.304Z,27.55
2022-11-20T12:47:14.826Z,27.43
2022-11-20T12:48:15.401Z,27.36
2022-11-20T12:49:15.938Z,27.44
2022-11-20T12:50:16.463Z,27.51
2022-11-20T12:51:17.005Z,27.54
2022-11-20T12:52:16.631Z,27.44
2022-11-20T12:53:18.212Z,27.41
2022-11-20T12:54:18.750Z,27.32
2022-11-20T12:55:19.280Z,27.32
2022-11-20T12:56:19.807Z,27.22
2022-11-20T12:57:20.332Z,27.14
2022-11-20T12:58:20.881Z,27.10
2022-11-20T12:59:21.656Z,27.10
2022-11-20T13:00:21.930Z,27.07
2022-11-20T13:01:22.584Z,27.09
2022-11-20T13:02:23.168Z,27.09